Time,TemperatureF,DewpointF,PressureIn,WindDirection,WindDirectionDegrees,WindSpeedMPH,WindSpeedGustMPH,Humidity,HourlyPrecipIn,Conditions,Clouds,dailyrainin,SoftwareType,DateUTC
2013-01-09 00:07:00,30.1,18.0,25.41,NW,315,3.0,8.0,60,0.00,,,0.00,weatherlink.com 1.10,2013-01-09 07:07:00,
2013-01-09 00:23:00,30.6,18.0,25.42,WNW,288,3.0,7.0,60,0.00,,,0.00,weatherlink.com 1.10,2013-01-09 07:23:00,
2013-01-09 00:37:00,30.4,18.0,25.41,WNW,291,4.0,8.0,60,0.00,,,0.00,weatherlink.com 1.10,2013-01-09 07:37:00,
2013-01-09 00:52:00,32.0,18.0,25.41,West,275,4.0,11.0,56,0.00,,,0.00,weatherlink.com 1.10,2013-01-09 07:52:00,
2013-01-09 01:07:00,31.1,18.0,25.41,WNW,287,3.0,5.0,58,0.00,,,0.00,weatherlink.com 1.10,2013-01-09 08:07:00,
2013-01-09 01:22:00,31.1,18.0,25.41,West,274,4.0,8.0,58,0.00,,,0.00,weatherlink.com 1.10,2013-01-09 08:22:00,
2013-01-09 01:37:00,31.3,18.0,25.41,West,278,6.0,10.0,57,0.00,,,0.00,weatherlink.com 1.10,2013-01-09 08:37:00,
2013-01-09 01:52:00,31.8,18.0,25.41,West,264,6.0,13.0,56,0.00,,,0.00,weatherlink.com 1.10,2013-01-09 08:52:00,
2013-01-09 02:07:00,31.9,17.0,25.41,West,259,6.0,11.0,55,0.00,,,0.00,weatherlink.com 1.10,2013-01-09 09:07:00,
2013-01-09 02:22:00,30.0,17.0,25.41,NW,308,2.0,6.0,58,0.00,,,0.00,weatherlink.com 1.10,2013-01-09 09:22:00,
2013-01-09 02:37:00,30.1,17.0,25.42,WNW,289,1.0,5.0,59,0.00,,,0.00,weatherlink.com 1.10,2013-01-09 09:37:00,
2013-01-09 02:52:00,26.1,15.0,25.42,NE,35,0.0,2.0,63,0.00,,,0.00,weatherlink.com 1.10,2013-01-09 09:52:00,
2013-01-09 03:07:00,26.1,15.0,25.42,NNE,30,1.0,6.0,63,0.00,,,0.00,weatherlink.com 1.10,2013-01-09 10:07:00,
2013-01-09 03:22:00,25.4,16.0,25.41,WSW,257,6.0,8.0,68,0.00,,,0.00,weatherlink.com 1.10,2013-01-09 10:22:00,
2013-01-09 03:37:00,27.7,16.0,25.41,WSW,257,7.0,11.0,63,0.00,,,0.00,weatherlink.com 1.10,2013-01-09 10:37:00,
2013-01-09 03:52:00,27.4,16.0,25.40,West,281,4.0,7.0,62,0.00,,,0.00,weatherlink.com 1.10,2013-01-09 10:52:00,
2013-01-09 04:07:00,27.5,16.0,25.40,West,278,5.0,10.0,61,0.00,,,0.00,weatherlink.com 1.10,2013-01-09 11:07:00,
2013-01-09 04:23:00,28.1,16.0,25.39,WNW,284,7.0,12.0,60,0.00,,,0.00,weatherlink.com 1.10,2013-01-09 11:23:00,
2013-01-09 04:37:00,26.7,15.0,25.39,WSW,258,7.0,11.0,62,0.00,,,0.00,weatherlink.com 1.10,2013-01-09 11:37:00,
2013-01-09 04:53:00,27.5,16.0,25.38,WNW,302,7.0,13.0,61,0.00,,,0.00,weatherlink.com 1.10,2013-01-09 11:53:00,
2013-01-09 05:08:00,27.3,16.0,25.38,WNW,291,9.0,13.0,62,0.00,,,0.00,weatherlink.com 1.10,2013-01-09 12:08:00,
2013-01-09 05:23:00,28.9,17.0,25.38,West,271,11.0,14.0,62,0.00,,,0.00,weatherlink.com 1.10,2013-01-09 12:23:00,
2013-01-09 05:38:00,30.0,18.0,25.38,WNW,295,6.0,14.0,61,0.00,,,0.00,weatherlink.com 1.10,2013-01-09 12:38:00,
2013-01-09 05:53:00,31.0,18.0,25.38,West,266,11.0,14.0,60,0.00,,,0.00,weatherlink.com 1.10,2013-01-09 12:53:00,
2013-01-09 06:08:00,31.3,18.0,25.40,WSW,255,11.0,13.0,59,0.00,,,0.00,weatherlink.com 1.10,2013-01-09 13:08:00,
2013-01-09 06:23:00,33.1,19.0,25.40,West,280,7.0,13.0,57,0.00,,,0.00,weatherlink.com 1.10,2013-01-09 13:23:00,
2013-01-09 06:38:00,32.7,19.0,25.41,SSE,159,4.0,9.0,57,0.00,,,0.00,weatherlink.com 1.10,2013-01-09 13:38:00,
2013-01-09 06:53:00,32.0,19.0,25.42,West,263,7.0,10.0,59,0.00,,,0.00,weatherlink.com 1.10,2013-01-09 13:53:00,
2013-01-09 07:08:00,31.7,19.0,25.42,WSW,255,13.0,13.0,60,0.00,,,0.00,weatherlink.com 1.10,2013-01-09 14:08:00,
2013-01-09 07:23:00,34.5,19.0,25.43,WSW,240,3.0,13.0,54,0.00,,,0.00,weatherlink.com 1.10,2013-01-09 14:23:00,
2013-01-09 07:38:00,31.2,19.0,25.43,NW,321,1.0,4.0,60,0.00,,,0.00,weatherlink.com 1.10,2013-01-09 14:38:00,
2013-01-09 07:53:00,31.0,18.0,25.44,SE,139,2.0,4.0,60,0.00,,,0.00,weatherlink.com 1.10,2013-01-09 14:53:00,
2013-01-09 08:08:00,30.0,18.0,25.45,SSW,212,10.0,11.0,60,0.00,,,0.00,weatherlink.com 1.10,2013-01-09 15:08:00,
2013-01-09 08:23:00,32.9,18.0,25.45,SW,221,4.0,11.0,55,0.00,,,0.00,weatherlink.com 1.10,2013-01-09 15:23:00,
2013-01-09 08:38:00,34.2,19.0,25.45,NNW,332,2.0,5.0,55,0.00,,,0.00,weatherlink.com 1.10,2013-01-09 15:38:00,
2013-01-09 08:53:00,37.6,20.0,25.46,SW,233,3.0,8.0,49,0.00,,,0.00,weatherlink.com 1.10,2013-01-09 15:53:00,
2013-01-09 09:08:00,38.2,21.0,25.46,WSW,243,3.0,12.0,50,0.00,,,0.00,weatherlink.com 1.10,2013-01-09 16:08:00,
2013-01-09 09:23:00,41.1,21.0,25.45,SW,233,3.0,8.0,45,0.00,,,0.00,weatherlink.com 1.10,2013-01-09 16:23:00,
2013-01-09 09:38:00,42.6,21.0,25.45,SSW,200,9.0,15.0,43,0.00,,,0.00,weatherlink.com 1.10,2013-01-09 16:38:00,
2013-01-09 09:53:00,44.3,21.0,25.45,SW,231,8.0,15.0,40,0.00,,,0.00,weatherlink.com 1.10,2013-01-09 16:53:00,
2013-01-09 10:08:00,45.2,20.0,25.45,SW,232,13.0,22.0,37,0.00,,,0.00,weatherlink.com 1.10,2013-01-09 17:08:00,
2013-01-09 10:23:00,45.2,20.0,25.45,SW,231,18.0,26.0,37,0.00,,,0.00,weatherlink.com 1.10,2013-01-09 17:23:00,
2013-01-09 10:38:00,45.6,19.0,25.44,SSW,206,16.0,23.0,35,0.00,,,0.00,weatherlink.com 1.10,2013-01-09 17:38:00,
2013-01-09 10:53:00,45.9,20.0,25.43,SE,136,10.0,25.0,35,0.00,,,0.00,weatherlink.com 1.10,2013-01-09 17:53:00,
2013-01-09 11:08:00,47.1,19.0,25.43,South,169,11.0,22.0,33,0.00,,,0.00,weatherlink.com 1.10,2013-01-09 18:08:00,
2013-01-09 11:23:00,48.4,19.0,25.41,SSW,203,13.0,22.0,31,0.00,,,0.00,weatherlink.com 1.10,2013-01-09 18:23:00,
2013-01-09 11:38:00,49.8,19.0,25.41,SSW,201,13.0,20.0,29,0.00,,,0.00,weatherlink.com 1.10,2013-01-09 18:38:00,
2013-01-09 11:53:00,51.2,18.0,25.40,WSW,238,17.0,22.0,27,0.00,,,0.00,weatherlink.com 1.10,2013-01-09 18:53:00,
2013-01-09 12:09:00,51.1,18.0,25.39,SW,222,20.0,24.0,27,0.00,,,0.00,weatherlink.com 1.10,2013-01-09 19:09:00,
2013-01-09 12:24:00,51.3,19.0,25.38,WSW,248,11.0,25.0,28,0.00,,,0.00,weatherlink.com 1.10,2013-01-09 19:24:00,
2013-01-09 12:39:00,52.5,18.0,25.38,SW,224,14.0,22.0,26,0.00,,,0.00,weatherlink.com 1.10,2013-01-09 19:39:00,
2013-01-09 12:54:00,52.8,18.0,25.38,South,173,8.0,22.0,25,0.00,,,0.00,weatherlink.com 1.10,2013-01-09 19:54:00,
2013-01-09 13:09:00,52.9,18.0,25.37,SW,225,11.0,21.0,25,0.00,,,0.00,weatherlink.com 1.10,2013-01-09 20:09:00,
2013-01-09 13:24:00,52.8,18.0,25.36,SW,236,12.0,21.0,25,0.00,,,0.00,weatherlink.com 1.10,2013-01-09 20:24:00,
2013-01-09 13:39:00,53.5,18.0,25.36,SW,226,12.0,17.0,25,0.00,,,0.00,weatherlink.com 1.10,2013-01-09 20:39:00,
2013-01-09 13:54:00,54.0,19.0,25.36,SW,220,13.0,19.0,25,0.00,,,0.00,weatherlink.com 1.10,2013-01-09 20:54:00,
2013-01-09 14:09:00,54.2,19.0,25.35,SSW,204,9.0,22.0,25,0.00,,,0.00,weatherlink.com 1.10,2013-01-09 21:09:00,
2013-01-09 14:24:00,54.5,19.0,25.34,SSE,166,7.0,21.0,25,0.00,,,0.00,weatherlink.com 1.10,2013-01-09 21:24:00,
2013-01-09 14:39:00,54.6,20.0,25.34,SSW,204,12.0,20.0,26,0.00,,,0.00,weatherlink.com 1.10,2013-01-09 21:39:00,
2013-01-09 14:54:00,54.6,21.0,25.34,SSW,213,17.0,19.0,27,0.00,,,0.00,weatherlink.com 1.10,2013-01-09 21:54:00,
2013-01-09 15:09:00,54.8,21.0,25.33,SSW,205,9.0,16.0,27,0.00,,,0.00,weatherlink.com 1.10,2013-01-09 22:09:00,
2013-01-09 15:24:00,55.3,21.0,25.33,SSE,153,8.0,13.0,26,0.00,,,0.00,weatherlink.com 1.10,2013-01-09 22:24:00,
2013-01-09 15:39:00,55.4,21.0,25.33,SE,143,7.0,17.0,26,0.00,,,0.00,weatherlink.com 1.10,2013-01-09 22:39:00,
2013-01-09 15:54:00,54.6,22.0,25.32,ESE,113,4.0,10.0,28,0.00,,,0.00,weatherlink.com 1.10,2013-01-09 22:54:00,
2013-01-09 16:09:00,51.8,25.0,25.32,SE,124,9.0,16.0,35,0.00,,,0.00,weatherlink.com 1.10,2013-01-09 23:09:00,
2013-01-09 16:24:00,48.6,26.0,25.31,SSE,153,8.0,12.0,41,0.00,,,0.00,weatherlink.com 1.10,2013-01-09 23:24:00,
2013-01-09 16:39:00,45.2,26.0,25.31,South,173,11.0,14.0,47,0.00,,,0.00,weatherlink.com 1.10,2013-01-09 23:39:00,
2013-01-09 16:54:00,43.3,26.0,25.30,ESE,110,5.0,15.0,50,0.00,,,0.00,weatherlink.com 1.10,2013-01-09 23:54:00,
2013-01-09 17:09:00,42.8,25.0,25.30,SE,146,9.0,16.0,49,0.00,,,0.00,weatherlink.com 1.10,2013-01-10 00:09:00,
2013-01-09 17:24:00,41.7,24.0,25.30,ESE,114,8.0,13.0,50,0.00,,,0.00,weatherlink.com 1.10,2013-01-10 00:24:00,
2013-01-09 17:39:00,40.7,24.0,25.30,SW,214,6.0,14.0,52,0.00,,,0.00,weatherlink.com 1.10,2013-01-10 00:39:00,
2013-01-09 17:54:00,40.1,24.0,25.30,SW,218,3.0,14.0,53,0.00,,,0.00,weatherlink.com 1.10,2013-01-10 00:54:00,
2013-01-09 18:09:00,39.6,24.0,25.29,SW,229,9.0,14.0,55,0.00,,,0.00,weatherlink.com 1.10,2013-01-10 01:09:00,
2013-01-09 18:24:00,38.6,25.0,25.29,SSW,209,7.0,10.0,58,0.00,,,0.00,weatherlink.com 1.10,2013-01-10 01:24:00,
2013-01-09 18:39:00,37.9,25.0,25.29,SW,233,8.0,9.0,60,0.00,,,0.00,weatherlink.com 1.10,2013-01-10 01:39:00,
2013-01-09 18:54:00,36.9,24.0,25.29,NE,40,2.0,5.0,61,0.00,,,0.00,weatherlink.com 1.10,2013-01-10 01:54:00,
2013-01-09 19:09:00,35.4,24.0,25.29,NE,47,2.0,6.0,64,0.00,,,0.00,weatherlink.com 1.10,2013-01-10 02:09:00,
2013-01-09 19:24:00,33.9,24.0,25.29,NNE,13,0.0,4.0,67,0.00,,,0.00,weatherlink.com 1.10,2013-01-10 02:24:00,
2013-01-09 19:39:00,34.8,24.0,25.28,SW,218,5.0,6.0,64,0.00,,,0.00,weatherlink.com 1.10,2013-01-10 02:39:00,
2013-01-09 19:54:00,35.0,23.0,25.28,South,184,1.0,7.0,63,0.00,,,0.00,weatherlink.com 1.10,2013-01-10 02:54:00,
2013-01-09 20:09:00,33.8,23.0,25.28,SSE,167,2.0,6.0,64,0.00,,,0.00,weatherlink.com 1.10,2013-01-10 03:09:00,
2013-01-09 20:24:00,33.7,23.0,25.28,SW,224,3.0,6.0,64,0.00,,,0.00,weatherlink.com 1.10,2013-01-10 03:24:00,
2013-01-09 20:39:00,32.7,22.0,25.29,NE,40,2.0,3.0,66,0.00,,,0.00,weatherlink.com 1.10,2013-01-10 03:39:00,
2013-01-09 20:54:00,32.2,22.0,25.27,SE,141,0.0,4.0,67,0.00,,,0.00,weatherlink.com 1.10,2013-01-10 03:54:00,
2013-01-09 21:10:00,31.1,22.0,25.26,WSW,243,1.0,3.0,70,0.00,,,0.00,weatherlink.com 1.10,2013-01-10 04:10:00,
2013-01-09 21:25:00,31.2,22.0,25.25,NNW,328,2.0,5.0,68,0.00,,,0.00,weatherlink.com 1.10,2013-01-10 04:25:00,
2013-01-09 21:40:00,31.4,22.0,25.25,West,264,1.0,9.0,67,0.00,,,0.00,weatherlink.com 1.10,2013-01-10 04:40:00,
2013-01-09 21:55:00,30.5,21.0,25.25,NNW,328,1.0,6.0,68,0.00,,,0.00,weatherlink.com 1.10,2013-01-10 04:55:00,
2013-01-09 22:10:00,30.1,21.0,25.25,NNW,328,3.0,6.0,68,0.00,,,0.00,weatherlink.com 1.10,2013-01-10 05:10:00,
2013-01-09 22:25:00,30.5,21.0,25.25,NW,313,1.0,7.0,67,0.00,,,0.00,weatherlink.com 1.10,2013-01-10 05:25:00,
2013-01-09 22:55:00,30.9,20.0,25.24,North,349,1.0,5.0,65,0.00,,,0.00,weatherlink.com 1.10,2013-01-10 05:55:00,
2013-01-09 23:10:00,31.4,20.0,25.23,SW,217,3.0,9.0,64,0.00,,,0.00,weatherlink.com 1.10,2013-01-10 06:10:00,
2013-01-09 23:25:00,32.1,20.0,25.23,South,181,10.0,16.0,62,0.00,,,0.00,weatherlink.com 1.10,2013-01-10 06:25:00,
2013-01-09 23:40:00,32.1,20.0,25.22,SW,223,12.0,19.0,61,0.00,,,0.00,weatherlink.com 1.10,2013-01-10 06:40:00,